Wawa Airport
CYXZ : rendu visible

Aérodrome :











RETROUVEZ-NOUS SUR...

 
LOGIN :

S'inscrire | Disclaimer

   EN    FR    IT 

 









Légende :    VFR   VFR Marginal   IFR   IFR Intensif   IFR Très Intensif
Visi : 
Plafond : 
>= 8 km
>= 3000ft
5 à 8 km
1000 à 3000 ft
1500m à 5 km
500 à 1000 ft
800 à 1500m
200 à 500 ft
< 800m
< 200 ft
Symboles :   Orages  Brouillard  Fortes neiges  Fortes précipitations  Vent > 20 kt







- Altitude de l'aérodrome : 942 ft
- Code IATA : YXZ


CYXZ - Wawa

DERNIER METAR :
  • 222200Z CCA 04010KT 10SM -RA BKN012 BKN025 OVC057 02/02 A3012 RMK ST5SC2SC1 /R11/ SLP216

METARs EXPIRÉS :
  • 222100Z 04008G15KT 15SM -RA BKN010 OVC022 02/02 A3014 RMK ST6SC2 SLP221
  • 222040Z 04009G16KT 15SM -RA BKN012 OVC027 02/02 A3014 RMK ST5SC3 SLP221
  • 222000Z 03011G20KT 15SM -RA SCT010 OVC025 02/02 A3015 RMK SF4SC4 SLP224

TAF TAF CYXZ
Valide du 22 à 20h jusqu'au 23 à 00h UTC


221939Z 2220/2224 04008KT P6SM -RA SCT012 BKN025 OVC060
TEMPO 2220/2223 4SM -RA BR BKN007 OVC012
FM222300 04008KT 4SM -RA BR OVC006
TEMPO 2223/2224 6SM -RA BR OVC025 RMK NXT FCST WILL BE ISSUED AT 231245Z
FIR CZYZ / Amérique du Nord



MET'MAP, la Météo Aéronautique d'un coup d'oeil ! - Copyright ORBIFLY Décembre 2007 - Disclaimer

ORBIFLY MET'MAP TEAM :

Programmation & Développement : Alexandra Zaïnal
Conception & Développement : Baudouin d'Aumeries
Co-Programmation & Développement : Marc-Olivier Méhu
Soutien technique & logistique : Manuel Goepfert

Contact : metmap@orbifly.com




SOURCES & CREDITS :

   NOAA       Earth
Advisory